Blounts Creek, North Carolina
Current Conditions -  °F | °C
As of 7:35 PM on Sunday 21 Dec 2014 (Local Time) from KOCW Reporting Station
Overcast Overcast  
Wind Chill: 38°   Ceiling: 5500
Heat Index: 42°   Visibility: 10mi
Dew Point: 35°   Wind: 6mph
Humidity: 76%   Direction: 50°NE
Pressure: 30.27"   Gusts: NA
Location:  35.35°N, 76.96°W
Report Text: KOCW 220035Z AUTO 05005KT 10SM OVC055 06/02 A3027 RMK AO2 T00550016
Loading
Personal Weather Stations






























Interactive Weather Map New forecast layout! Learn more

10-Day Weather Forecast

Advertisements
Track Severe Weather on mobile